sensor_id;sensor_type;location;lat;lon;timestamp;temperature;humidity
10722;DHT22;5412;59.450;18.124;2023-12-20T00:01:04;2.40;99.90
10722;DHT22;5412;59.450;18.124;2023-12-20T00:03:30;2.40;99.90
10722;DHT22;5412;59.450;18.124;2023-12-20T00:05:56;2.40;99.90
10722;DHT22;5412;59.450;18.124;2023-12-20T00:08:21;2.20;99.90
10722;DHT22;5412;59.450;18.124;2023-12-20T00:10:47;2.30;99.90
10722;DHT22;5412;59.450;18.124;2023-12-20T00:13:13;2.30;99.90
10722;DHT22;5412;59.450;18.124;2023-12-20T00:15:38;2.20;99.90
10722;DHT22;5412;59.450;18.124;2023-12-20T00:18:04;2.10;99.90
10722;DHT22;5412;59.450;18.124;2023-12-20T00:20:30;2.10;99.90
10722;DHT22;5412;59.450;18.124;2023-12-20T00:22:57;2.10;99.90
10722;DHT22;5412;59.450;18.124;2023-12-20T00:25:23;2.20;99.90
10722;DHT22;5412;59.450;18.124;2023-12-20T00:27:49;2.10;99.90
10722;DHT22;5412;59.450;18.124;2023-12-20T00:30:15;2.10;99.90
10722;DHT22;5412;59.450;18.124;2023-12-20T00:32:41;2.10;99.90
10722;DHT22;5412;59.450;18.124;2023-12-20T00:35:15;2.00;99.90
10722;DHT22;5412;59.450;18.124;2023-12-20T00:37:41;2.10;99.90
10722;DHT22;5412;59.450;18.124;2023-12-20T00:40:07;2.00;99.90
10722;DHT22;5412;59.450;18.124;2023-12-20T00:42:33;1.90;99.90
10722;DHT22;5412;59.450;18.124;2023-12-20T00:44:59;2.00;99.90
10722;DHT22;5412;59.450;18.124;2023-12-20T00:47:25;2.20;99.90
10722;DHT22;5412;59.450;18.124;2023-12-20T00:49:52;2.20;99.90
10722;DHT22;5412;59.450;18.124;2023-12-20T00:52:18;2.10;99.90
10722;DHT22;5412;59.450;18.124;2023-12-20T00:54:45;2.10;99.90
10722;DHT22;5412;59.450;18.124;2023-12-20T00:57:11;2.10;99.90
10722;DHT22;5412;59.450;18.124;2023-12-20T00:59:36;2.10;99.90
10722;DHT22;5412;59.450;18.124;2023-12-20T01:02:05;2.10;99.90
10722;DHT22;5412;59.450;18.124;2023-12-20T01:04:34;1.90;99.90
10722;DHT22;5412;59.450;18.124;2023-12-20T01:06:59;2.00;99.90
10722;DHT22;5412;59.450;18.124;2023-12-20T01:09:28;2.00;99.90
10722;DHT22;5412;59.450;18.124;2023-12-20T01:11:54;1.90;99.90
10722;DHT22;5412;59.450;18.124;2023-12-20T01:14:20;1.90;99.90
10722;DHT22;5412;59.450;18.124;2023-12-20T01:16:45;1.70;99.90
10722;DHT22;5412;59.450;18.124;2023-12-20T01:19:12;1.70;99.90
10722;DHT22;5412;59.450;18.124;2023-12-20T01:21:39;1.70;99.90
10722;DHT22;5412;59.450;18.124;2023-12-20T01:24:07;1.70;99.90
10722;DHT22;5412;59.450;18.124;2023-12-20T01:26:33;3.00;99.90
10722;DHT22;5412;59.450;18.124;2023-12-20T01:28:58;1.80;99.90
10722;DHT22;5412;59.450;18.124;2023-12-20T01:31:24;1.90;99.90
10722;DHT22;5412;59.450;18.124;2023-12-20T01:33:50;1.90;99.90
10722;DHT22;5412;59.450;18.124;2023-12-20T01:36:15;1.90;99.90
10722;DHT22;5412;59.450;18.124;2023-12-20T01:38:41;1.70;99.90
10722;DHT22;5412;59.450;18.124;2023-12-20T01:41:07;1.80;99.90
10722;DHT22;5412;59.450;18.124;2023-12-20T01:43:32;1.70;99.90
10722;DHT22;5412;59.450;18.124;2023-12-20T01:45:58;1.60;99.90
10722;DHT22;5412;59.450;18.124;2023-12-20T01:48:25;1.60;99.90
10722;DHT22;5412;59.450;18.124;2023-12-20T01:50:51;1.50;99.90
10722;DHT22;5412;59.450;18.124;2023-12-20T01:53:19;1.50;99.90
10722;DHT22;5412;59.450;18.124;2023-12-20T01:55:45;1.50;99.90
10722;DHT22;5412;59.450;18.124;2023-12-20T01:58:14;1.70;99.90
10722;DHT22;5412;59.450;18.124;2023-12-20T02:00:40;1.80;99.90
10722;DHT22;5412;59.450;18.124;2023-12-20T02:03:06;1.70;99.90
10722;DHT22;5412;59.450;18.124;2023-12-20T02:05:33;1.80;99.90
10722;DHT22;5412;59.450;18.124;2023-12-20T02:07:59;1.90;99.90
10722;DHT22;5412;59.450;18.124;2023-12-20T02:10:25;1.80;99.90
10722;DHT22;5412;59.450;18.124;2023-12-20T02:12:51;1.90;99.90
10722;DHT22;5412;59.450;18.124;2023-12-20T02:15:17;2.00;99.90
10722;DHT22;5412;59.450;18.124;2023-12-20T02:17:44;2.00;99.90
10722;DHT22;5412;59.450;18.124;2023-12-20T02:20:11;1.90;99.90
10722;DHT22;5412;59.450;18.124;2023-12-20T02:22:36;1.90;99.90
10722;DHT22;5412;59.450;18.124;2023-12-20T02:25:02;1.90;99.90
10722;DHT22;5412;59.450;18.124;2023-12-20T02:27:29;1.90;99.90
10722;DHT22;5412;59.450;18.124;2023-12-20T02:29:55;1.90;99.90
10722;DHT22;5412;59.450;18.124;2023-12-20T02:32:21;1.80;99.90
10722;DHT22;5412;59.450;18.124;2023-12-20T02:34:48;1.90;99.90
10722;DHT22;5412;59.450;18.124;2023-12-20T02:37:14;1.90;99.90
10722;DHT22;5412;59.450;18.124;2023-12-20T02:39:39;1.90;99.90
10722;DHT22;5412;59.450;18.124;2023-12-20T02:42:05;2.00;99.90
10722;DHT22;5412;59.450;18.124;2023-12-20T02:44:31;2.00;99.90
10722;DHT22;5412;59.450;18.124;2023-12-20T02:46:56;1.90;99.90
10722;DHT22;5412;59.450;18.124;2023-12-20T02:49:22;1.90;99.90
10722;DHT22;5412;59.450;18.124;2023-12-20T02:51:48;1.90;99.90
10722;DHT22;5412;59.450;18.124;2023-12-20T02:54:14;1.90;99.90
10722;DHT22;5412;59.450;18.124;2023-12-20T02:56:39;1.90;99.90
10722;DHT22;5412;59.450;18.124;2023-12-20T02:59:05;1.90;99.90
10722;DHT22;5412;59.450;18.124;2023-12-20T03:01:31;1.90;99.90
10722;DHT22;5412;59.450;18.124;2023-12-20T03:03:57;1.50;99.90
10722;DHT22;5412;59.450;18.124;2023-12-20T03:06:23;2.00;99.90
10722;DHT22;5412;59.450;18.124;2023-12-20T03:08:49;1.90;99.90
10722;DHT22;5412;59.450;18.124;2023-12-20T03:11:14;2.00;99.90
10722;DHT22;5412;59.450;18.124;2023-12-20T03:13:40;1.90;99.90
10722;DHT22;5412;59.450;18.124;2023-12-20T03:16:13;1.80;99.90
10722;DHT22;5412;59.450;18.124;2023-12-20T03:18:39;1.90;99.90
10722;DHT22;5412;59.450;18.124;2023-12-20T03:21:05;1.90;99.90
10722;DHT22;5412;59.450;18.124;2023-12-20T03:23:31;1.80;99.90
10722;DHT22;5412;59.450;18.124;2023-12-20T03:25:59;1.90;99.90
10722;DHT22;5412;59.450;18.124;2023-12-20T03:28:26;2.00;99.90
10722;DHT22;5412;59.450;18.124;2023-12-20T03:30:51;2.00;99.90
10722;DHT22;5412;59.450;18.124;2023-12-20T03:33:17;2.00;99.90
10722;DHT22;5412;59.450;18.124;2023-12-20T03:35:43;2.00;99.90
10722;DHT22;5412;59.450;18.124;2023-12-20T03:38:08;2.00;99.90
10722;DHT22;5412;59.450;18.124;2023-12-20T03:40:34;1.80;99.90
10722;DHT22;5412;59.450;18.124;2023-12-20T03:43:00;1.90;99.90
10722;DHT22;5412;59.450;18.124;2023-12-20T03:45:26;2.00;99.90
10722;DHT22;5412;59.450;18.124;2023-12-20T03:47:52;1.90;99.90
10722;DHT22;5412;59.450;18.124;2023-12-20T03:50:25;2.00;99.90
10722;DHT22;5412;59.450;18.124;2023-12-20T03:52:51;1.90;99.90
10722;DHT22;5412;59.450;18.124;2023-12-20T03:55:17;2.00;99.90
10722;DHT22;5412;59.450;18.124;2023-12-20T03:57:43;1.90;99.90
10722;DHT22;5412;59.450;18.124;2023-12-20T04:00:09;1.90;99.90
10722;DHT22;5412;59.450;18.124;2023-12-20T04:02:39;1.80;99.90
10722;DHT22;5412;59.450;18.124;2023-12-20T04:05:05;1.90;99.90
10722;DHT22;5412;59.450;18.124;2023-12-20T04:07:31;2.10;99.90
10722;DHT22;5412;59.450;18.124;2023-12-20T04:09:57;2.00;99.90
10722;DHT22;5412;59.450;18.124;2023-12-20T04:12:23;1.90;99.90
10722;DHT22;5412;59.450;18.124;2023-12-20T04:14:48;1.90;99.90
10722;DHT22;5412;59.450;18.124;2023-12-20T04:17:15;1.90;99.90
10722;DHT22;5412;59.450;18.124;2023-12-20T04:19:42;2.00;99.90
10722;DHT22;5412;59.450;18.124;2023-12-20T04:22:07;2.10;99.90
10722;DHT22;5412;59.450;18.124;2023-12-20T04:24:33;2.20;99.90
10722;DHT22;5412;59.450;18.124;2023-12-20T04:26:59;2.30;99.90
10722;DHT22;5412;59.450;18.124;2023-12-20T04:29:24;2.40;99.90
10722;DHT22;5412;59.450;18.124;2023-12-20T04:31:50;2.40;99.90
10722;DHT22;5412;59.450;18.124;2023-12-20T04:34:17;2.30;99.90
10722;DHT22;5412;59.450;18.124;2023-12-20T04:36:43;2.30;99.90
10722;DHT22;5412;59.450;18.124;2023-12-20T04:39:10;2.20;99.90
10722;DHT22;5412;59.450;18.124;2023-12-20T04:41:35;2.20;99.90
10722;DHT22;5412;59.450;18.124;2023-12-20T04:44:01;2.20;99.90
10722;DHT22;5412;59.450;18.124;2023-12-20T04:46:27;2.40;99.90
10722;DHT22;5412;59.450;18.124;2023-12-20T04:48:53;2.30;99.90
10722;DHT22;5412;59.450;18.124;2023-12-20T04:51:19;2.30;99.90
10722;DHT22;5412;59.450;18.124;2023-12-20T04:53:44;2.40;99.90
10722;DHT22;5412;59.450;18.124;2023-12-20T04:56:10;2.50;99.90
10722;DHT22;5412;59.450;18.124;2023-12-20T04:58:35;2.70;99.90
10722;DHT22;5412;59.450;18.124;2023-12-20T05:01:02;2.70;99.90
10722;DHT22;5412;59.450;18.124;2023-12-20T05:03:28;2.80;99.90
10722;DHT22;5412;59.450;18.124;2023-12-20T05:05:54;2.90;99.90
10722;DHT22;5412;59.450;18.124;2023-12-20T05:08:20;2.90;99.90
10722;DHT22;5412;59.450;18.124;2023-12-20T05:10:45;2.80;99.90
10722;DHT22;5412;59.450;18.124;2023-12-20T05:13:11;2.80;99.90
10722;DHT22;5412;59.450;18.124;2023-12-20T05:15:37;2.80;99.90
10722;DHT22;5412;59.450;18.124;2023-12-20T05:18:03;2.60;99.90
10722;DHT22;5412;59.450;18.124;2023-12-20T05:20:28;2.50;99.90
10722;DHT22;5412;59.450;18.124;2023-12-20T05:22:54;2.50;99.90
10722;DHT22;5412;59.450;18.124;2023-12-20T05:25:20;2.60;99.90
10722;DHT22;5412;59.450;18.124;2023-12-20T05:27:45;2.50;99.90
10722;DHT22;5412;59.450;18.124;2023-12-20T05:30:11;2.60;99.90
10722;DHT22;5412;59.450;18.124;2023-12-20T05:32:37;2.70;99.90
10722;DHT22;5412;59.450;18.124;2023-12-20T05:35:03;2.70;99.90
10722;DHT22;5412;59.450;18.124;2023-12-20T05:37:28;2.60;99.90
10722;DHT22;5412;59.450;18.124;2023-12-20T05:39:54;2.50;99.90
10722;DHT22;5412;59.450;18.124;2023-12-20T05:42:20;2.50;99.90
10722;DHT22;5412;59.450;18.124;2023-12-20T05:44:45;2.60;99.90
10722;DHT22;5412;59.450;18.124;2023-12-20T05:47:11;2.60;99.90
10722;DHT22;5412;59.450;18.124;2023-12-20T05:49:37;2.70;99.90
10722;DHT22;5412;59.450;18.124;2023-12-20T05:52:03;2.70;99.90
10722;DHT22;5412;59.450;18.124;2023-12-20T05:54:28;2.70;99.90
10722;DHT22;5412;59.450;18.124;2023-12-20T05:56:54;2.70;99.90
10722;DHT22;5412;59.450;18.124;2023-12-20T05:59:20;2.60;99.90
10722;DHT22;5412;59.450;18.124;2023-12-20T06:01:45;2.60;99.90
10722;DHT22;5412;59.450;18.124;2023-12-20T06:04:11;2.50;99.90
10722;DHT22;5412;59.450;18.124;2023-12-20T06:06:43;2.60;99.90
10722;DHT22;5412;59.450;18.124;2023-12-20T06:09:10;2.40;99.90
10722;DHT22;5412;59.450;18.124;2023-12-20T06:11:36;2.30;99.90
10722;DHT22;5412;59.450;18.124;2023-12-20T06:14:01;2.30;99.90
10722;DHT22;5412;59.450;18.124;2023-12-20T06:16:27;2.50;99.90
10722;DHT22;5412;59.450;18.124;2023-12-20T06:18:53;2.30;99.90
10722;DHT22;5412;59.450;18.124;2023-12-20T06:21:19;2.40;99.90
10722;DHT22;5412;59.450;18.124;2023-12-20T06:23:44;2.60;99.90
10722;DHT22;5412;59.450;18.124;2023-12-20T06:26:10;2.60;99.90
10722;DHT22;5412;59.450;18.124;2023-12-20T06:28:36;2.60;99.90
10722;DHT22;5412;59.450;18.124;2023-12-20T06:31:01;2.60;99.90
10722;DHT22;5412;59.450;18.124;2023-12-20T06:33:28;2.50;99.90
10722;DHT22;5412;59.450;18.124;2023-12-20T06:35:54;2.60;99.90
10722;DHT22;5412;59.450;18.124;2023-12-20T06:38:20;2.60;99.90
10722;DHT22;5412;59.450;18.124;2023-12-20T06:40:46;2.70;99.90
10722;DHT22;5412;59.450;18.124;2023-12-20T06:43:12;2.70;99.90
10722;DHT22;5412;59.450;18.124;2023-12-20T06:45:38;2.60;99.90
10722;DHT22;5412;59.450;18.124;2023-12-20T06:48:05;2.60;99.90
10722;DHT22;5412;59.450;18.124;2023-12-20T06:50:30;2.60;99.90
10722;DHT22;5412;59.450;18.124;2023-12-20T06:52:56;2.20;99.90
10722;DHT22;5412;59.450;18.124;2023-12-20T06:55:22;2.20;99.90
10722;DHT22;5412;59.450;18.124;2023-12-20T06:57:48;2.30;99.90
10722;DHT22;5412;59.450;18.124;2023-12-20T07:00:14;2.40;99.90
10722;DHT22;5412;59.450;18.124;2023-12-20T07:02:40;2.50;99.90
10722;DHT22;5412;59.450;18.124;2023-12-20T07:05:06;2.50;99.90
10722;DHT22;5412;59.450;18.124;2023-12-20T07:07:32;2.50;99.90
10722;DHT22;5412;59.450;18.124;2023-12-20T07:09:58;2.40;99.90
10722;DHT22;5412;59.450;18.124;2023-12-20T07:12:23;2.30;99.90
10722;DHT22;5412;59.450;18.124;2023-12-20T07:14:49;2.40;99.90
10722;DHT22;5412;59.450;18.124;2023-12-20T07:17:15;2.50;99.90
10722;DHT22;5412;59.450;18.124;2023-12-20T07:19:41;2.50;99.90
10722;DHT22;5412;59.450;18.124;2023-12-20T07:22:07;2.40;99.90
10722;DHT22;5412;59.450;18.124;2023-12-20T07:24:33;2.40;99.90
10722;DHT22;5412;59.450;18.124;2023-12-20T07:27:00;2.30;99.90
10722;DHT22;5412;59.450;18.124;2023-12-20T07:29:26;3.20;99.90
10722;DHT22;5412;59.450;18.124;2023-12-20T07:31:52;2.50;99.90
10722;DHT22;5412;59.450;18.124;2023-12-20T07:34:20;2.70;99.90
10722;DHT22;5412;59.450;18.124;2023-12-20T07:36:45;2.70;99.90
10722;DHT22;5412;59.450;18.124;2023-12-20T07:39:11;2.70;99.90
10722;DHT22;5412;59.450;18.124;2023-12-20T07:41:37;2.80;99.90
10722;DHT22;5412;59.450;18.124;2023-12-20T07:44:04;2.90;99.90
10722;DHT22;5412;59.450;18.124;2023-12-20T07:46:30;2.90;99.90
10722;DHT22;5412;59.450;18.124;2023-12-20T07:48:56;3.00;99.90
10722;DHT22;5412;59.450;18.124;2023-12-20T07:51:21;3.00;99.90
10722;DHT22;5412;59.450;18.124;2023-12-20T07:53:47;3.10;99.90
10722;DHT22;5412;59.450;18.124;2023-12-20T07:56:17;3.10;99.90
10722;DHT22;5412;59.450;18.124;2023-12-20T07:58:43;3.10;99.90
10722;DHT22;5412;59.450;18.124;2023-12-20T08:01:10;3.20;99.90
10722;DHT22;5412;59.450;18.124;2023-12-20T08:03:36;3.30;99.90
10722;DHT22;5412;59.450;18.124;2023-12-20T08:06:05;3.30;99.90
10722;DHT22;5412;59.450;18.124;2023-12-20T08:08:31;3.30;99.90
10722;DHT22;5412;59.450;18.124;2023-12-20T08:11:00;3.60;99.90
10722;DHT22;5412;59.450;18.124;2023-12-20T08:13:26;3.70;99.90
10722;DHT22;5412;59.450;18.124;2023-12-20T08:15:52;3.70;99.90
10722;DHT22;5412;59.450;18.124;2023-12-20T08:18:19;3.80;99.90
10722;DHT22;5412;59.450;18.124;2023-12-20T08:20:44;3.90;99.90
10722;DHT22;5412;59.450;18.124;2023-12-20T08:23:10;3.90;99.90
10722;DHT22;5412;59.450;18.124;2023-12-20T08:25:36;4.00;99.90
10722;DHT22;5412;59.450;18.124;2023-12-20T08:28:02;4.00;99.90
10722;DHT22;5412;59.450;18.124;2023-12-20T08:30:28;4.10;99.90
10722;DHT22;5412;59.450;18.124;2023-12-20T08:32:55;4.00;99.90
10722;DHT22;5412;59.450;18.124;2023-12-20T08:35:20;3.90;99.90
10722;DHT22;5412;59.450;18.124;2023-12-20T08:37:46;3.90;99.90
10722;DHT22;5412;59.450;18.124;2023-12-20T08:40:12;3.80;99.90
10722;DHT22;5412;59.450;18.124;2023-12-20T08:42:39;3.80;99.90
10722;DHT22;5412;59.450;18.124;2023-12-20T08:45:05;3.80;99.90
10722;DHT22;5412;59.450;18.124;2023-12-20T08:47:30;3.90;99.90
10722;DHT22;5412;59.450;18.124;2023-12-20T08:49:56;3.80;99.90
10722;DHT22;5412;59.450;18.124;2023-12-20T08:52:24;3.70;99.90
10722;DHT22;5412;59.450;18.124;2023-12-20T08:54:53;3.70;99.90
10722;DHT22;5412;59.450;18.124;2023-12-20T08:57:22;3.70;99.90
10722;DHT22;5412;59.450;18.124;2023-12-20T08:59:49;3.80;99.90
10722;DHT22;5412;59.450;18.124;2023-12-20T09:02:16;3.80;99.90
10722;DHT22;5412;59.450;18.124;2023-12-20T09:04:41;3.80;99.90
10722;DHT22;5412;59.450;18.124;2023-12-20T09:07:20;3.80;99.90
10722;DHT22;5412;59.450;18.124;2023-12-20T09:10:04;3.80;99.90
10722;DHT22;5412;59.450;18.124;2023-12-20T09:12:32;3.80;99.90
10722;DHT22;5412;59.450;18.124;2023-12-20T09:15:31;3.80;99.90
10722;DHT22;5412;59.450;18.124;2023-12-20T09:21:14;3.80;99.90
10722;DHT22;5412;59.450;18.124;2023-12-20T09:23:40;3.70;99.90
10722;DHT22;5412;59.450;18.124;2023-12-20T09:26:05;3.80;99.90
10722;DHT22;5412;59.450;18.124;2023-12-20T09:28:31;3.80;99.90
10722;DHT22;5412;59.450;18.124;2023-12-20T09:31:02;3.80;99.90
10722;DHT22;5412;59.450;18.124;2023-12-20T09:33:28;3.80;99.90
10722;DHT22;5412;59.450;18.124;2023-12-20T09:35:54;3.80;99.90
10722;DHT22;5412;59.450;18.124;2023-12-20T09:38:20;3.70;99.90
10722;DHT22;5412;59.450;18.124;2023-12-20T09:40:45;3.70;99.90
10722;DHT22;5412;59.450;18.124;2023-12-20T09:43:14;3.80;99.90
10722;DHT22;5412;59.450;18.124;2023-12-20T09:45:42;3.90;99.90
10722;DHT22;5412;59.450;18.124;2023-12-20T09:48:11;3.90;99.90
10722;DHT22;5412;59.450;18.124;2023-12-20T09:50:37;3.80;99.90
10722;DHT22;5412;59.450;18.124;2023-12-20T09:53:05;3.90;99.90
10722;DHT22;5412;59.450;18.124;2023-12-20T09:55:35;3.80;99.90
10722;DHT22;5412;59.450;18.124;2023-12-20T09:58:01;3.90;99.90
10722;DHT22;5412;59.450;18.124;2023-12-20T10:00:27;3.90;99.90
10722;DHT22;5412;59.450;18.124;2023-12-20T10:03:00;3.80;99.90
10722;DHT22;5412;59.450;18.124;2023-12-20T10:05:32;3.80;99.90
10722;DHT22;5412;59.450;18.124;2023-12-20T10:07:59;3.80;99.90
10722;DHT22;5412;59.450;18.124;2023-12-20T10:10:25;3.80;99.90
10722;DHT22;5412;59.450;18.124;2023-12-20T10:13:07;3.80;99.90
10722;DHT22;5412;59.450;18.124;2023-12-20T10:15:34;3.90;99.90
10722;DHT22;5412;59.450;18.124;2023-12-20T10:18:01;3.80;99.90
10722;DHT22;5412;59.450;18.124;2023-12-20T10:20:27;3.80;99.90
10722;DHT22;5412;59.450;18.124;2023-12-20T10:22:55;3.80;99.90
10722;DHT22;5412;59.450;18.124;2023-12-20T10:25:21;3.70;99.90
10722;DHT22;5412;59.450;18.124;2023-12-20T10:27:47;3.70;99.90
10722;DHT22;5412;59.450;18.124;2023-12-20T10:30:14;3.70;99.90
10722;DHT22;5412;59.450;18.124;2023-12-20T10:32:40;3.80;99.90
10722;DHT22;5412;59.450;18.124;2023-12-20T10:35:06;3.80;99.90
10722;DHT22;5412;59.450;18.124;2023-12-20T10:37:36;3.80;99.90
10722;DHT22;5412;59.450;18.124;2023-12-20T10:40:04;3.80;99.90
10722;DHT22;5412;59.450;18.124;2023-12-20T10:42:32;3.90;99.90
10722;DHT22;5412;59.450;18.124;2023-12-20T10:45:00;3.90;99.90
10722;DHT22;5412;59.450;18.124;2023-12-20T10:47:26;4.00;99.90
10722;DHT22;5412;59.450;18.124;2023-12-20T10:49:55;4.00;99.90
10722;DHT22;5412;59.450;18.124;2023-12-20T10:52:23;4.00;99.90
10722;DHT22;5412;59.450;18.124;2023-12-20T10:54:50;4.00;99.90
10722;DHT22;5412;59.450;18.124;2023-12-20T10:57:18;4.00;99.90
10722;DHT22;5412;59.450;18.124;2023-12-20T10:59:45;4.20;99.90
10722;DHT22;5412;59.450;18.124;2023-12-20T11:02:14;4.30;99.90
10722;DHT22;5412;59.450;18.124;2023-12-20T11:07:35;4.50;99.90
10722;DHT22;5412;59.450;18.124;2023-12-20T11:10:23;4.60;99.90
10722;DHT22;5412;59.450;18.124;2023-12-20T11:13:15;4.80;99.90
10722;DHT22;5412;59.450;18.124;2023-12-20T11:15:43;4.70;99.90
10722;DHT22;5412;59.450;18.124;2023-12-20T11:18:11;5.00;99.90
10722;DHT22;5412;59.450;18.124;2023-12-20T11:20:40;4.80;99.90
10722;DHT22;5412;59.450;18.124;2023-12-20T11:23:09;4.70;99.90
10722;DHT22;5412;59.450;18.124;2023-12-20T11:25:54;4.70;99.90
10722;DHT22;5412;59.450;18.124;2023-12-20T11:28:24;4.50;99.90
10722;DHT22;5412;59.450;18.124;2023-12-20T11:30:51;4.50;99.90
10722;DHT22;5412;59.450;18.124;2023-12-20T11:33:17;4.30;99.90
10722;DHT22;5412;59.450;18.124;2023-12-20T11:35:46;4.40;99.90
10722;DHT22;5412;59.450;18.124;2023-12-20T11:38:15;4.30;99.90
10722;DHT22;5412;59.450;18.124;2023-12-20T11:40:44;4.40;99.90
10722;DHT22;5412;59.450;18.124;2023-12-20T11:43:10;4.30;99.90
10722;DHT22;5412;59.450;18.124;2023-12-20T11:45:35;4.30;99.90
10722;DHT22;5412;59.450;18.124;2023-12-20T11:48:02;4.30;99.90
10722;DHT22;5412;59.450;18.124;2023-12-20T11:50:28;4.40;99.90
10722;DHT22;5412;59.450;18.124;2023-12-20T11:52:56;4.30;99.90
10722;DHT22;5412;59.450;18.124;2023-12-20T11:55:22;4.30;99.90
10722;DHT22;5412;59.450;18.124;2023-12-20T11:57:50;4.20;99.90
10722;DHT22;5412;59.450;18.124;2023-12-20T12:00:16;4.10;99.90
10722;DHT22;5412;59.450;18.124;2023-12-20T12:02:43;4.20;99.90
10722;DHT22;5412;59.450;18.124;2023-12-20T12:05:09;4.20;99.90
10722;DHT22;5412;59.450;18.124;2023-12-20T12:07:35;4.20;99.90
10722;DHT22;5412;59.450;18.124;2023-12-20T12:10:01;4.30;99.90
10722;DHT22;5412;59.450;18.124;2023-12-20T12:12:27;4.20;99.90
10722;DHT22;5412;59.450;18.124;2023-12-20T12:14:54;4.10;99.90
10722;DHT22;5412;59.450;18.124;2023-12-20T12:17:20;4.10;99.90
10722;DHT22;5412;59.450;18.124;2023-12-20T12:19:45;4.30;99.90
10722;DHT22;5412;59.450;18.124;2023-12-20T12:22:13;4.20;99.90
10722;DHT22;5412;59.450;18.124;2023-12-20T12:24:43;4.30;99.90
10722;DHT22;5412;59.450;18.124;2023-12-20T12:27:10;4.30;99.90
10722;DHT22;5412;59.450;18.124;2023-12-20T12:29:36;4.40;99.90
10722;DHT22;5412;59.450;18.124;2023-12-20T12:32:06;4.30;99.90
10722;DHT22;5412;59.450;18.124;2023-12-20T12:34:33;4.20;99.90
10722;DHT22;5412;59.450;18.124;2023-12-20T12:37:03;4.30;99.90
10722;DHT22;5412;59.450;18.124;2023-12-20T12:39:29;4.20;99.90
10722;DHT22;5412;59.450;18.124;2023-12-20T12:41:56;4.20;99.90
10722;DHT22;5412;59.450;18.124;2023-12-20T12:44:22;4.20;99.90
10722;DHT22;5412;59.450;18.124;2023-12-20T12:46:50;4.30;99.90
10722;DHT22;5412;59.450;18.124;2023-12-20T12:49:21;4.20;99.90
10722;DHT22;5412;59.450;18.124;2023-12-20T12:51:47;4.20;99.90
10722;DHT22;5412;59.450;18.124;2023-12-20T12:54:13;4.30;99.90
10722;DHT22;5412;59.450;18.124;2023-12-20T12:56:41;4.30;99.90
10722;DHT22;5412;59.450;18.124;2023-12-20T12:59:06;4.20;99.90
10722;DHT22;5412;59.450;18.124;2023-12-20T13:01:32;4.20;99.90
10722;DHT22;5412;59.450;18.124;2023-12-20T13:03:58;4.20;99.90
10722;DHT22;5412;59.450;18.124;2023-12-20T13:06:24;4.10;99.90
10722;DHT22;5412;59.450;18.124;2023-12-20T13:08:49;4.20;99.90
10722;DHT22;5412;59.450;18.124;2023-12-20T13:11:15;4.20;99.90
10722;DHT22;5412;59.450;18.124;2023-12-20T13:13:41;4.10;99.90
10722;DHT22;5412;59.450;18.124;2023-12-20T13:16:07;4.10;99.90
10722;DHT22;5412;59.450;18.124;2023-12-20T13:18:33;4.10;99.90
10722;DHT22;5412;59.450;18.124;2023-12-20T13:20:58;4.00;99.90
10722;DHT22;5412;59.450;18.124;2023-12-20T13:23:24;4.10;99.90
10722;DHT22;5412;59.450;18.124;2023-12-20T13:25:50;4.10;99.90
10722;DHT22;5412;59.450;18.124;2023-12-20T13:28:15;4.10;99.90
10722;DHT22;5412;59.450;18.124;2023-12-20T13:30:41;4.10;99.90
10722;DHT22;5412;59.450;18.124;2023-12-20T13:33:07;4.10;99.90
10722;DHT22;5412;59.450;18.124;2023-12-20T13:35:34;4.10;99.90
10722;DHT22;5412;59.450;18.124;2023-12-20T13:38:00;4.10;99.90
10722;DHT22;5412;59.450;18.124;2023-12-20T13:40:26;4.10;99.90
10722;DHT22;5412;59.450;18.124;2023-12-20T13:42:52;4.10;99.90
10722;DHT22;5412;59.450;18.124;2023-12-20T13:45:18;4.10;99.90
10722;DHT22;5412;59.450;18.124;2023-12-20T13:47:44;4.10;99.90
10722;DHT22;5412;59.450;18.124;2023-12-20T13:50:09;4.00;99.90
10722;DHT22;5412;59.450;18.124;2023-12-20T13:52:35;4.10;99.90
10722;DHT22;5412;59.450;18.124;2023-12-20T13:55:01;4.10;99.90
10722;DHT22;5412;59.450;18.124;2023-12-20T13:57:27;4.10;99.90
10722;DHT22;5412;59.450;18.124;2023-12-20T13:59:55;4.10;99.90
10722;DHT22;5412;59.450;18.124;2023-12-20T14:02:23;4.20;99.90
10722;DHT22;5412;59.450;18.124;2023-12-20T14:04:49;4.10;99.90
10722;DHT22;5412;59.450;18.124;2023-12-20T14:07:14;4.20;99.90
10722;DHT22;5412;59.450;18.124;2023-12-20T14:09:40;4.20;99.90
10722;DHT22;5412;59.450;18.124;2023-12-20T14:12:11;4.20;99.90
10722;DHT22;5412;59.450;18.124;2023-12-20T14:14:37;4.20;99.90
10722;DHT22;5412;59.450;18.124;2023-12-20T14:17:03;4.20;99.90
10722;DHT22;5412;59.450;18.124;2023-12-20T14:19:29;4.20;99.90
10722;DHT22;5412;59.450;18.124;2023-12-20T14:21:55;4.20;99.90
10722;DHT22;5412;59.450;18.124;2023-12-20T14:24:21;4.20;99.90
10722;DHT22;5412;59.450;18.124;2023-12-20T14:26:46;4.20;99.90
10722;DHT22;5412;59.450;18.124;2023-12-20T14:29:12;4.20;99.90
10722;DHT22;5412;59.450;18.124;2023-12-20T14:31:38;4.20;99.90
10722;DHT22;5412;59.450;18.124;2023-12-20T14:34:04;4.30;99.90
10722;DHT22;5412;59.450;18.124;2023-12-20T14:36:30;4.20;99.90
10722;DHT22;5412;59.450;18.124;2023-12-20T14:38:56;4.20;99.90
10722;DHT22;5412;59.450;18.124;2023-12-20T14:41:22;4.20;99.90
10722;DHT22;5412;59.450;18.124;2023-12-20T14:43:50;4.20;99.90
10722;DHT22;5412;59.450;18.124;2023-12-20T14:46:17;4.20;99.90
10722;DHT22;5412;59.450;18.124;2023-12-20T14:48:43;4.30;99.90
10722;DHT22;5412;59.450;18.124;2023-12-20T14:51:08;4.30;99.90
10722;DHT22;5412;59.450;18.124;2023-12-20T14:53:34;4.20;99.90
10722;DHT22;5412;59.450;18.124;2023-12-20T14:56:03;4.20;99.90
10722;DHT22;5412;59.450;18.124;2023-12-20T14:58:29;4.20;99.90
10722;DHT22;5412;59.450;18.124;2023-12-20T15:00:55;4.30;99.90
10722;DHT22;5412;59.450;18.124;2023-12-20T15:03:21;4.10;99.90
10722;DHT22;5412;59.450;18.124;2023-12-20T15:05:47;4.20;99.90
10722;DHT22;5412;59.450;18.124;2023-12-20T15:08:14;4.20;99.90
10722;DHT22;5412;59.450;18.124;2023-12-20T15:10:40;4.20;99.90
10722;DHT22;5412;59.450;18.124;2023-12-20T15:13:05;4.10;99.90
10722;DHT22;5412;59.450;18.124;2023-12-20T15:15:31;4.20;99.90
10722;DHT22;5412;59.450;18.124;2023-12-20T15:18:01;4.20;99.90
10722;DHT22;5412;59.450;18.124;2023-12-20T15:20:30;4.30;99.90
10722;DHT22;5412;59.450;18.124;2023-12-20T15:22:58;4.30;99.90
10722;DHT22;5412;59.450;18.124;2023-12-20T15:25:30;4.30;99.90
10722;DHT22;5412;59.450;18.124;2023-12-20T15:27:56;4.30;99.90
10722;DHT22;5412;59.450;18.124;2023-12-20T15:30:22;4.20;99.90
10722;DHT22;5412;59.450;18.124;2023-12-20T15:32:50;4.20;99.90
10722;DHT22;5412;59.450;18.124;2023-12-20T15:35:18;4.30;99.90
10722;DHT22;5412;59.450;18.124;2023-12-20T15:37:44;4.30;99.90
10722;DHT22;5412;59.450;18.124;2023-12-20T15:40:10;4.30;99.90
10722;DHT22;5412;59.450;18.124;2023-12-20T15:42:37;4.30;99.90
10722;DHT22;5412;59.450;18.124;2023-12-20T15:45:04;4.40;99.90
10722;DHT22;5412;59.450;18.124;2023-12-20T15:47:30;4.40;99.90